createdAt,value
2019-01-30T00:00:49.472Z,-2.31
2019-01-30T00:01:49.577Z,-2.37
2019-01-30T00:02:49.482Z,-2.42
2019-01-30T00:03:49.546Z,-2.44
2019-01-30T00:04:49.563Z,-2.44
2019-01-30T00:05:49.541Z,-2.44
2019-01-30T00:06:49.492Z,-2.45
2019-01-30T00:07:49.517Z,-2.45
2019-01-30T00:08:49.475Z,-2.47
2019-01-30T00:09:49.482Z,-2.49
2019-01-30T00:10:49.535Z,-2.53
2019-01-30T00:11:49.498Z,-2.57
2019-01-30T00:12:49.489Z,-2.60
2019-01-30T00:13:49.494Z,-2.63
2019-01-30T00:14:49.502Z,-2.68
2019-01-30T00:15:56.015Z,-2.72
2019-01-30T00:16:49.514Z,-2.78
2019-01-30T00:17:49.557Z,-2.86
2019-01-30T00:18:49.483Z,-2.93
2019-01-30T00:19:49.649Z,-3.03
2019-01-30T00:20:49.483Z,-3.05
2019-01-30T00:21:49.560Z,-3.15
2019-01-30T00:22:49.485Z,-3.22
2019-01-30T00:23:49.485Z,-3.28
2019-01-30T00:24:49.501Z,-3.36
2019-01-30T00:25:49.560Z,-3.46
2019-01-30T00:26:49.561Z,-3.56
2019-01-30T00:27:49.570Z,-3.63
2019-01-30T00:28:49.521Z,-3.68
2019-01-30T00:29:49.565Z,-3.76
2019-01-30T00:30:49.488Z,-3.79
2019-01-30T00:31:49.459Z,-3.81
2019-01-30T00:32:49.576Z,-3.83
2019-01-30T00:33:49.567Z,-3.84
2019-01-30T00:34:49.625Z,-3.87
2019-01-30T00:35:49.527Z,-3.88
2019-01-30T00:36:49.496Z,-3.91
2019-01-30T00:37:49.569Z,-3.90
2019-01-30T00:38:49.620Z,-3.86
2019-01-30T00:39:49.497Z,-3.90
2019-01-30T00:40:49.508Z,-3.98
2019-01-30T00:41:49.572Z,-4.02
2019-01-30T00:42:49.574Z,-4.06
2019-01-30T00:43:49.455Z,-4.15
2019-01-30T00:44:49.572Z,-4.21
2019-01-30T00:45:49.582Z,-4.27
2019-01-30T00:46:49.597Z,-4.27
2019-01-30T00:47:49.518Z,-4.32
2019-01-30T00:48:49.569Z,-4.33
2019-01-30T00:49:49.594Z,-4.32
2019-01-30T00:50:49.502Z,-4.38
2019-01-30T00:51:49.568Z,-4.39
2019-01-30T00:52:49.569Z,-4.44
2019-01-30T00:53:49.574Z,-4.50
2019-01-30T00:54:49.575Z,-4.55
2019-01-30T00:55:49.502Z,-4.57
2019-01-30T00:56:49.570Z,-4.62
2019-01-30T00:57:49.575Z,-4.66
2019-01-30T00:58:49.572Z,-4.66
2019-01-30T00:59:49.566Z,-4.66
2019-01-30T01:00:49.566Z,-4.71
2019-01-30T01:01:49.523Z,-4.68
2019-01-30T01:02:49.523Z,-4.65
2019-01-30T01:03:49.583Z,-4.61
2019-01-30T01:04:49.462Z,-4.60
2019-01-30T01:05:49.458Z,-4.57
2019-01-30T01:06:49.659Z,-4.60
2019-01-30T01:07:49.478Z,-4.57
2019-01-30T01:08:49.458Z,-4.53
2019-01-30T01:09:49.524Z,-4.61
2019-01-30T01:10:49.578Z,-4.65
2019-01-30T01:11:49.463Z,-4.71
2019-01-30T01:12:49.508Z,-4.76
2019-01-30T01:13:49.570Z,-4.79
2019-01-30T01:14:49.588Z,-4.71
2019-01-30T01:15:49.530Z,-4.61
2019-01-30T01:16:49.541Z,-4.57
2019-01-30T01:17:49.583Z,-4.53
2019-01-30T01:18:49.532Z,-4.57
2019-01-30T01:19:49.620Z,-4.55
2019-01-30T01:20:49.532Z,-4.60
2019-01-30T01:21:49.619Z,-4.61
2019-01-30T01:22:49.601Z,-4.66
2019-01-30T01:23:49.568Z,-4.73
2019-01-30T01:24:49.534Z,-4.77
2019-01-30T01:25:49.529Z,-4.80
2019-01-30T01:26:49.610Z,-4.73
2019-01-30T01:27:49.529Z,-4.72
2019-01-30T01:28:49.592Z,-4.69
2019-01-30T01:29:49.609Z,-4.72
2019-01-30T01:30:49.530Z,-4.72
2019-01-30T01:31:49.598Z,-4.72
2019-01-30T01:32:49.597Z,-4.72
2019-01-30T01:33:49.537Z,-4.76
2019-01-30T01:34:49.529Z,-4.79
2019-01-30T01:35:49.600Z,-4.80
2019-01-30T01:36:49.523Z,-4.84
2019-01-30T01:37:49.534Z,-4.81
2019-01-30T01:38:49.616Z,-4.72
2019-01-30T01:39:50.991Z,-4.77
2019-01-30T01:40:49.630Z,-4.76
2019-01-30T01:41:49.617Z,-4.72
2019-01-30T01:42:49.550Z,-4.68
2019-01-30T01:43:49.504Z,-4.65
2019-01-30T01:44:49.561Z,-4.58
2019-01-30T01:45:49.546Z,-4.47
2019-01-30T01:46:49.625Z,-4.46
2019-01-30T01:47:49.727Z,-4.33
2019-01-30T01:48:49.544Z,-4.09
2019-01-30T01:49:49.619Z,-4.02
2019-01-30T01:50:49.547Z,-3.86
2019-01-30T01:51:49.562Z,-3.80
2019-01-30T01:52:49.634Z,-3.80
2019-01-30T01:53:49.583Z,-3.69
2019-01-30T01:54:49.642Z,-3.64
2019-01-30T01:55:49.549Z,-3.65
2019-01-30T01:56:49.627Z,-3.60
2019-01-30T01:57:49.570Z,-3.49
2019-01-30T01:58:49.552Z,-3.49
2019-01-30T01:59:49.631Z,-3.54
2019-01-30T02:00:49.570Z,-3.51
2019-01-30T02:01:49.628Z,-3.43
2019-01-30T02:02:49.574Z,-3.34
2019-01-30T02:03:49.558Z,-3.23
2019-01-30T02:04:49.631Z,-3.10
2019-01-30T02:05:49.560Z,-3.03
2019-01-30T02:06:49.599Z,-3.03
2019-01-30T02:07:49.557Z,-3.03
2019-01-30T02:08:49.561Z,-3.05
2019-01-30T02:09:49.559Z,-3.03
2019-01-30T02:10:49.587Z,-2.98
2019-01-30T02:11:49.563Z,-2.97
2019-01-30T02:12:49.563Z,-2.90
2019-01-30T02:13:49.566Z,-2.86
2019-01-30T02:14:49.733Z,-2.82
2019-01-30T02:15:49.582Z,-2.78
2019-01-30T02:16:49.725Z,-2.72
2019-01-30T02:17:49.572Z,-2.72
2019-01-30T02:18:49.633Z,-2.78
2019-01-30T02:19:49.560Z,-2.78
2019-01-30T02:20:49.689Z,-2.75
2019-01-30T02:21:49.630Z,-2.68
2019-01-30T02:22:49.563Z,-2.61
2019-01-30T02:23:49.638Z,-2.60
2019-01-30T02:24:49.564Z,-2.55
2019-01-30T02:25:49.632Z,-2.55
2019-01-30T02:26:49.573Z,-2.52
2019-01-30T02:27:49.637Z,-2.45
2019-01-30T02:28:49.607Z,-2.42
2019-01-30T02:29:49.576Z,-2.41
2019-01-30T02:30:49.576Z,-2.44
2019-01-30T02:31:49.584Z,-2.37
2019-01-30T02:32:49.653Z,-2.34
2019-01-30T02:33:49.576Z,-2.30
2019-01-30T02:34:49.578Z,-2.29
2019-01-30T02:35:49.579Z,-2.26
2019-01-30T02:36:49.659Z,-2.20
2019-01-30T02:37:49.653Z,-2.15
2019-01-30T02:38:49.653Z,-2.15
2019-01-30T02:39:49.592Z,-2.09
2019-01-30T02:40:49.654Z,-2.08
2019-01-30T02:41:49.653Z,-2.09
2019-01-30T02:42:49.657Z,-2.09
2019-01-30T02:43:49.600Z,-2.08
2019-01-30T02:44:49.621Z,-2.12
2019-01-30T02:45:49.586Z,-2.13
2019-01-30T02:46:49.616Z,-2.16
2019-01-30T02:47:49.662Z,-2.19
2019-01-30T02:48:49.598Z,-2.23
2019-01-30T02:49:49.649Z,-2.27
2019-01-30T02:50:49.596Z,-2.30
2019-01-30T02:51:49.556Z,-2.31
2019-01-30T02:52:49.550Z,-2.34
2019-01-30T02:53:49.583Z,-2.35
2019-01-30T02:54:49.659Z,-2.42
2019-01-30T02:55:49.623Z,-2.48
2019-01-30T02:56:49.659Z,-2.48
2019-01-30T02:57:49.614Z,-2.53
2019-01-30T02:58:49.598Z,-2.49
2019-01-30T02:59:49.677Z,-2.51
2019-01-30T03:00:58.738Z,-2.51
2019-01-30T03:01:49.598Z,-2.47
2019-01-30T03:02:49.769Z,-2.48
2019-01-30T03:03:49.599Z,-2.49
2019-01-30T03:04:49.682Z,-2.52
2019-01-30T03:05:49.678Z,-2.57
2019-01-30T03:06:49.679Z,-2.57
2019-01-30T03:07:49.605Z,-2.52
2019-01-30T03:08:49.663Z,-2.51
2019-01-30T03:09:49.621Z,-2.42
2019-01-30T03:10:49.666Z,-2.41
2019-01-30T03:11:49.596Z,-2.35
2019-01-30T03:12:49.665Z,-2.35
2019-01-30T03:13:49.671Z,-2.34
2019-01-30T03:14:49.603Z,-2.33
2019-01-30T03:15:49.606Z,-2.31
2019-01-30T03:16:49.670Z,-2.31
2019-01-30T03:17:49.612Z,-2.27
2019-01-30T03:18:49.606Z,-2.24
2019-01-30T03:19:49.628Z,-2.23
2019-01-30T03:20:49.578Z,-2.22
2019-01-30T03:21:49.759Z,-2.24
2019-01-30T03:22:49.698Z,-2.23
2019-01-30T03:23:49.692Z,-2.23
2019-01-30T03:24:49.578Z,-2.22
2019-01-30T03:25:49.631Z,-2.24
2019-01-30T03:26:49.702Z,-2.26
2019-01-30T03:27:49.708Z,-2.30
2019-01-30T03:28:49.614Z,-2.31
2019-01-30T03:29:49.616Z,-2.35
2019-01-30T03:30:49.623Z,-2.35
2019-01-30T03:31:49.620Z,-2.35
2019-01-30T03:32:49.640Z,-2.35
2019-01-30T03:33:49.713Z,-2.30
2019-01-30T03:34:49.692Z,-2.33
2019-01-30T03:35:49.624Z,-2.40
2019-01-30T03:36:49.691Z,-2.41
2019-01-30T03:37:49.699Z,-2.42
2019-01-30T03:38:49.685Z,-2.44
2019-01-30T03:39:49.685Z,-2.45
2019-01-30T03:40:49.632Z,-2.41
2019-01-30T03:41:49.618Z,-2.44
2019-01-30T03:42:49.693Z,-2.48
2019-01-30T03:43:49.619Z,-2.49
2019-01-30T03:44:49.690Z,-2.51
2019-01-30T03:45:49.626Z,-2.51
2019-01-30T03:46:49.697Z,-2.47
2019-01-30T03:47:49.618Z,-2.38
2019-01-30T03:48:49.627Z,-2.37
2019-01-30T03:49:49.624Z,-2.33
2019-01-30T03:50:49.697Z,-2.31
2019-01-30T03:51:49.624Z,-2.24
2019-01-30T03:52:49.693Z,-2.26
2019-01-30T03:53:49.630Z,-2.27
2019-01-30T03:54:49.703Z,-2.26
2019-01-30T03:55:49.624Z,-2.22
2019-01-30T03:56:49.696Z,-2.20
2019-01-30T03:57:49.625Z,-2.20
2019-01-30T03:58:49.581Z,-2.23
2019-01-30T03:59:49.580Z,-2.26
2019-01-30T04:00:49.605Z,-2.29
2019-01-30T04:01:49.688Z,-2.27
2019-01-30T04:02:49.697Z,-2.20
2019-01-30T04:03:49.698Z,-2.16
2019-01-30T04:04:49.683Z,-2.16
2019-01-30T04:05:49.680Z,-2.16
2019-01-30T04:06:49.694Z,-2.20
2019-01-30T04:07:49.689Z,-2.16
2019-01-30T04:08:49.738Z,-2.13
2019-01-30T04:09:49.717Z,-2.16
2019-01-30T04:10:49.645Z,-2.18
2019-01-30T04:11:49.814Z,-2.12
2019-01-30T04:12:49.657Z,-2.09
2019-01-30T04:13:49.666Z,-2.08
2019-01-30T04:14:49.647Z,-2.09
2019-01-30T04:15:49.725Z,-2.07
2019-01-30T04:16:49.726Z,-2.02
2019-01-30T04:17:49.703Z,-2.04
2019-01-30T04:18:49.639Z,-2.04
2019-01-30T04:19:49.738Z,-2.07
2019-01-30T04:20:49.713Z,-2.11
2019-01-30T04:21:49.646Z,-2.16
2019-01-30T04:22:49.718Z,-2.20
2019-01-30T04:23:49.645Z,-2.22
2019-01-30T04:24:49.662Z,-2.18
2019-01-30T04:25:49.716Z,-2.18
2019-01-30T04:26:49.657Z,-2.19
2019-01-30T04:27:49.729Z,-2.23
2019-01-30T04:28:49.707Z,-2.27
2019-01-30T04:29:49.706Z,-2.33
2019-01-30T04:30:49.679Z,-2.33
2019-01-30T04:31:49.791Z,-2.35
2019-01-30T04:32:49.716Z,-2.22
2019-01-30T04:33:49.625Z,-2.20
2019-01-30T04:34:49.720Z,-2.19
2019-01-30T04:35:49.723Z,-2.18
2019-01-30T04:36:49.725Z,-2.18
2019-01-30T04:37:49.630Z,-2.16
2019-01-30T04:38:49.690Z,-2.16
2019-01-30T04:39:49.669Z,-2.16
2019-01-30T04:40:49.666Z,-2.13
2019-01-30T04:41:49.746Z,-2.13
2019-01-30T04:42:49.688Z,-2.13
2019-01-30T04:43:49.756Z,-2.15
2019-01-30T04:44:49.687Z,-2.15
2019-01-30T04:45:49.749Z,-2.13
2019-01-30T04:46:49.747Z,-2.13
2019-01-30T04:47:49.671Z,-2.05
2019-01-30T04:48:49.747Z,-1.98
2019-01-30T04:49:49.678Z,-1.97
2019-01-30T04:50:49.752Z,-1.97
2019-01-30T04:51:49.690Z,-1.93
2019-01-30T04:52:49.639Z,-1.88
2019-01-30T04:53:49.757Z,-1.89
2019-01-30T04:54:49.783Z,-1.88
2019-01-30T04:55:49.673Z,-1.87
2019-01-30T04:56:49.759Z,-1.88
2019-01-30T04:57:49.677Z,-1.82
2019-01-30T04:58:49.677Z,-1.80
2019-01-30T04:59:49.761Z,-1.76
2019-01-30T05:00:49.774Z,-1.76
2019-01-30T05:01:50.188Z,-1.70
2019-01-30T05:02:49.687Z,-1.67
2019-01-30T05:03:49.752Z,-1.66
2019-01-30T05:04:49.756Z,-1.65
2019-01-30T05:05:49.682Z,-1.65
2019-01-30T05:06:49.684Z,-1.67
2019-01-30T05:07:49.842Z,-1.70
2019-01-30T05:08:49.746Z,-1.71
2019-01-30T05:09:49.630Z,-1.76
2019-01-30T05:10:49.620Z,-1.70
2019-01-30T05:11:49.694Z,-1.67
2019-01-30T05:12:49.735Z,-1.63
2019-01-30T05:13:49.623Z,-1.59
2019-01-30T05:14:49.747Z,-1.58
2019-01-30T05:15:49.653Z,-1.58
2019-01-30T05:16:49.625Z,-1.56
2019-01-30T05:17:49.696Z,-1.58
2019-01-30T05:18:49.755Z,-1.60
2019-01-30T05:19:49.689Z,-1.63
2019-01-30T05:20:49.766Z,-1.66
2019-01-30T05:21:49.687Z,-1.71
2019-01-30T05:22:49.756Z,-1.74
2019-01-30T05:23:49.766Z,-1.73
2019-01-30T05:24:49.692Z,-1.74
2019-01-30T05:25:49.775Z,-1.76
2019-01-30T05:26:49.691Z,-1.77
2019-01-30T05:27:49.764Z,-1.76
2019-01-30T05:29:49.787Z,-1.80
2019-01-30T05:30:49.787Z,-1.81
2019-01-30T05:32:00.669Z,-1.80
2019-01-30T05:32:49.711Z,-1.82
2019-01-30T05:33:49.786Z,-1.78
2019-01-30T05:34:49.761Z,-1.73
2019-01-30T05:35:49.709Z,-1.74
2019-01-30T05:36:49.707Z,-1.76
2019-01-30T05:37:51.423Z,-1.80
2019-01-30T05:38:49.712Z,-1.81
2019-01-30T05:39:49.723Z,-1.84
2019-01-30T05:40:49.678Z,-1.88
2019-01-30T05:41:49.721Z,-1.89
2019-01-30T05:42:49.704Z,-2.00
2019-01-30T05:43:49.776Z,-2.04
2019-01-30T05:44:49.676Z,-2.07
2019-01-30T05:45:49.773Z,-2.07
2019-01-30T05:46:49.766Z,-2.08
2019-01-30T05:47:49.684Z,-2.11
2019-01-30T05:48:49.639Z,-2.13
2019-01-30T05:49:49.789Z,-2.12
2019-01-30T05:50:49.845Z,-2.12
2019-01-30T05:51:49.792Z,-2.08
2019-01-30T05:52:49.805Z,-2.12
2019-01-30T05:53:49.751Z,-2.12
2019-01-30T05:54:49.717Z,-2.11
2019-01-30T05:55:49.816Z,-2.11
2019-01-30T05:56:49.803Z,-2.12
2019-01-30T05:57:49.820Z,-2.09
2019-01-30T05:58:49.799Z,-2.09
2019-01-30T05:59:49.657Z,-2.09
2019-01-30T06:00:49.766Z,-2.09
2019-01-30T06:01:49.706Z,-2.05
2019-01-30T06:02:49.775Z,-2.04
2019-01-30T06:03:49.718Z,-2.04
2019-01-30T06:04:49.669Z,-2.02
2019-01-30T06:05:49.754Z,-2.01
2019-01-30T06:06:49.728Z,-1.95
2019-01-30T06:07:49.783Z,-1.93
2019-01-30T06:08:49.743Z,-1.95
2019-01-30T06:09:49.731Z,-1.95
2019-01-30T06:10:49.814Z,-1.98
2019-01-30T06:11:49.829Z,-2.02
2019-01-30T06:12:49.730Z,-2.05
2019-01-30T06:13:49.741Z,-2.08
2019-01-30T06:14:49.760Z,-2.07
2019-01-30T06:15:49.732Z,-2.01
2019-01-30T06:16:49.806Z,-1.98
2019-01-30T06:17:49.809Z,-1.98
2019-01-30T06:18:49.733Z,-1.98
2019-01-30T06:19:49.751Z,-1.98
2019-01-30T06:20:49.810Z,-2.00
2019-01-30T06:21:49.737Z,-2.02
2019-01-30T06:22:49.742Z,-2.04
2019-01-30T06:23:49.811Z,-2.05
2019-01-30T06:24:49.775Z,-2.07
2019-01-30T06:25:49.740Z,-2.07
2019-01-30T06:26:49.872Z,-2.07
2019-01-30T06:27:49.830Z,-2.04
2019-01-30T06:28:49.818Z,-2.02
2019-01-30T06:29:49.730Z,-2.01
2019-01-30T06:30:49.805Z,-1.97
2019-01-30T06:31:49.731Z,-1.91
2019-01-30T06:32:49.747Z,-1.89
2019-01-30T06:33:49.805Z,-1.89
2019-01-30T06:34:49.738Z,-1.89
2019-01-30T06:35:49.744Z,-1.91
2019-01-30T06:36:49.810Z,-1.91
2019-01-30T06:37:49.741Z,-1.91
2019-01-30T06:38:49.810Z,-1.87
2019-01-30T06:39:49.824Z,-1.85
2019-01-30T06:40:49.840Z,-1.85
2019-01-30T06:41:49.752Z,-1.85
2019-01-30T06:42:49.823Z,-1.82
2019-01-30T06:43:49.824Z,-1.82
2019-01-30T06:44:49.772Z,-1.84
2019-01-30T06:45:49.753Z,-1.84
2019-01-30T06:46:49.826Z,-1.82
2019-01-30T06:47:49.778Z,-1.81
2019-01-30T06:48:49.918Z,-1.81
2019-01-30T06:49:49.790Z,-1.80
2019-01-30T06:50:49.791Z,-1.80
2019-01-30T06:51:49.832Z,-1.82
2019-01-30T06:52:49.834Z,-1.80
2019-01-30T06:53:49.832Z,-1.74
2019-01-30T06:54:49.759Z,-1.71
2019-01-30T06:55:49.720Z,-1.69
2019-01-30T06:56:49.847Z,-1.67
2019-01-30T06:57:49.757Z,-1.65
2019-01-30T06:58:49.761Z,-1.62
2019-01-30T06:59:49.790Z,-1.58
2019-01-30T07:00:49.699Z,-1.54
2019-01-30T07:01:49.712Z,-1.51
2019-01-30T07:02:49.682Z,-1.47
2019-01-30T07:03:49.733Z,-1.44
2019-01-30T07:04:49.759Z,-1.45
2019-01-30T07:05:49.721Z,-1.44
2019-01-30T07:06:49.716Z,-1.43
2019-01-30T07:07:49.694Z,-1.45
2019-01-30T07:08:49.722Z,-1.47
2019-01-30T07:09:49.774Z,-1.45
2019-01-30T07:10:49.851Z,-1.43
2019-01-30T07:11:49.771Z,-1.43
2019-01-30T07:12:49.769Z,-1.44
2019-01-30T07:13:49.856Z,-1.44
2019-01-30T07:14:49.781Z,-1.45
2019-01-30T07:15:49.794Z,-1.47
2019-01-30T07:16:49.867Z,-1.48
2019-01-30T07:17:49.775Z,-1.49
2019-01-30T07:18:49.862Z,-1.48
2019-01-30T07:19:49.781Z,-1.47
2019-01-30T07:20:49.888Z,-1.47
2019-01-30T07:21:49.852Z,-1.47
2019-01-30T07:22:49.781Z,-1.41
2019-01-30T07:23:49.867Z,-1.37
2019-01-30T07:24:49.872Z,-1.32
2019-01-30T07:25:49.783Z,-1.29
2019-01-30T07:26:49.782Z,-1.29
2019-01-30T07:27:49.871Z,-1.29
2019-01-30T07:28:49.784Z,-1.32
2019-01-30T07:29:49.811Z,-1.32
2019-01-30T07:30:49.832Z,-1.28
2019-01-30T07:31:49.879Z,-1.26
2019-01-30T07:32:49.753Z,-1.25
2019-01-30T07:33:49.843Z,-1.26
2019-01-30T07:34:49.755Z,-1.28
2019-01-30T07:35:49.839Z,-1.26
2019-01-30T07:36:49.794Z,-1.25
2019-01-30T07:37:49.758Z,-1.25
2019-01-30T07:38:49.731Z,-1.25
2019-01-30T07:39:49.862Z,-1.25
2019-01-30T07:40:49.793Z,-1.21
2019-01-30T07:41:49.884Z,-1.19
2019-01-30T07:42:49.867Z,-1.18
2019-01-30T07:43:49.793Z,-1.17
2019-01-30T07:44:51.083Z,-1.17
2019-01-30T07:45:49.755Z,-1.15
2019-01-30T07:46:49.875Z,-1.14
2019-01-30T07:47:49.799Z,-1.15
2019-01-30T07:48:49.870Z,-1.14
2019-01-30T07:49:49.794Z,-1.11
2019-01-30T07:50:49.868Z,-1.13
2019-01-30T07:51:49.820Z,-1.13
2019-01-30T07:52:49.875Z,-1.10
2019-01-30T07:53:49.870Z,-1.08
2019-01-30T07:54:49.815Z,-1.07
2019-01-30T07:55:49.807Z,-1.07
2019-01-30T07:56:49.868Z,-1.07
2019-01-30T07:57:49.901Z,-1.08
2019-01-30T07:58:49.885Z,-1.08
2019-01-30T07:59:50.009Z,-1.10
2019-01-30T08:00:49.862Z,-1.10
2019-01-30T08:01:49.865Z,-1.11
2019-01-30T08:02:53.378Z,-1.10
2019-01-30T08:03:49.833Z,-1.08
2019-01-30T08:04:49.869Z,-1.07
2019-01-30T08:05:49.779Z,-1.07
2019-01-30T08:06:49.866Z,-1.07
2019-01-30T08:07:49.765Z,-1.06
2019-01-30T08:08:49.867Z,-1.04
2019-01-30T08:09:49.815Z,-1.04
2019-01-30T08:10:49.880Z,-1.03
2019-01-30T08:11:49.817Z,-1.03
2019-01-30T08:12:49.825Z,-1.03
2019-01-30T08:13:49.817Z,-1.00
2019-01-30T08:14:49.883Z,-1.00
2019-01-30T08:15:49.831Z,-0.99
2019-01-30T08:16:49.819Z,-0.99
2019-01-30T08:17:49.897Z,-0.96
2019-01-30T08:18:49.822Z,-0.93
2019-01-30T08:19:51.964Z,-0.91
2019-01-30T08:20:49.884Z,-0.91
2019-01-30T08:21:49.872Z,-0.89
2019-01-30T08:22:49.813Z,-0.88
2019-01-30T08:23:49.908Z,-0.86
2019-01-30T08:24:49.884Z,-0.86
2019-01-30T08:25:49.965Z,-0.86
2019-01-30T08:26:50.175Z,-0.85
2019-01-30T08:27:50.296Z,-0.84
2019-01-30T08:28:49.789Z,-0.84
2019-01-30T08:29:49.919Z,-0.84
2019-01-30T08:30:49.846Z,-0.82
2019-01-30T08:31:50.165Z,-0.80
2019-01-30T08:32:50.091Z,-0.77
2019-01-30T08:33:49.911Z,-0.75
2019-01-30T08:34:49.894Z,-0.75
2019-01-30T08:36:49.802Z,-0.72
2019-01-30T08:37:49.890Z,-0.67
2019-01-30T08:38:49.834Z,-0.66
2019-01-30T08:39:49.789Z,-0.65
2019-01-30T08:40:49.774Z,-0.63
2019-01-30T08:41:49.797Z,-0.63
2019-01-30T08:42:52.108Z,-0.62
2019-01-30T08:43:49.818Z,-0.62
2019-01-30T08:44:49.779Z,-0.61
2019-01-30T08:45:49.885Z,-0.59
2019-01-30T08:46:49.842Z,-0.59
2019-01-30T08:47:49.939Z,-0.58
2019-01-30T08:48:49.882Z,-0.58
2019-01-30T08:49:49.853Z,-0.55
2019-01-30T08:50:49.761Z,-0.54
2019-01-30T08:51:49.829Z,-0.54
2019-01-30T08:52:49.767Z,-0.49
2019-01-30T08:53:49.894Z,-0.47
2019-01-30T08:54:49.861Z,-0.47
2019-01-30T08:55:49.768Z,-0.46
2019-01-30T08:56:53.096Z,-0.47
2019-01-30T08:57:49.832Z,-0.43
2019-01-30T08:58:49.859Z,-0.43
2019-01-30T08:59:49.786Z,-0.42
2019-01-30T09:00:49.904Z,-0.40
2019-01-30T09:01:49.834Z,-0.40
2019-01-30T09:02:49.906Z,-0.40
2019-01-30T09:03:49.905Z,-0.39
2019-01-30T09:04:49.910Z,-0.38
2019-01-30T09:05:49.957Z,-0.38
2019-01-30T09:06:49.911Z,-0.36
2019-01-30T09:07:49.913Z,-0.38
2019-01-30T09:08:49.926Z,-0.33
2019-01-30T09:09:49.855Z,-0.32
2019-01-30T09:10:49.924Z,-0.32
2019-01-30T09:11:49.855Z,-0.31
2019-01-30T09:12:49.957Z,-0.28
2019-01-30T09:13:49.877Z,-0.27
2019-01-30T09:14:49.867Z,-0.25
2019-01-30T09:15:49.927Z,-0.25
2019-01-30T09:16:49.860Z,-0.25
2019-01-30T09:17:49.934Z,-0.24
2019-01-30T09:18:49.928Z,-0.21
2019-01-30T09:19:49.859Z,-0.20
2019-01-30T09:20:49.932Z,-0.17
2019-01-30T09:21:49.859Z,-0.15
2019-01-30T09:22:49.897Z,-0.13
2019-01-30T09:23:49.898Z,-0.09
2019-01-30T09:24:49.865Z,-0.08
2019-01-30T09:25:49.938Z,-0.08
2019-01-30T09:26:49.897Z,-0.06
2019-01-30T09:27:49.954Z,-0.02
2019-01-30T09:28:49.893Z,0.00
2019-01-30T09:29:49.945Z,0.01
2019-01-30T09:30:49.941Z,0.01
2019-01-30T09:31:49.973Z,0.00
2019-01-30T09:32:49.877Z,0.01
2019-01-30T09:33:49.869Z,0.04
2019-01-30T09:34:49.880Z,0.05
2019-01-30T09:35:49.938Z,0.07
2019-01-30T09:36:49.878Z,0.05
2019-01-30T09:37:50.013Z,0.05
2019-01-30T09:38:49.988Z,0.08
2019-01-30T09:39:49.919Z,0.11
2019-01-30T09:40:49.885Z,0.12
2019-01-30T09:41:49.943Z,0.15
2019-01-30T09:42:49.966Z,0.18
2019-01-30T09:43:49.946Z,0.15
2019-01-30T09:44:49.878Z,0.19
2019-01-30T09:45:49.950Z,0.20
2019-01-30T09:46:49.953Z,0.22
2019-01-30T09:47:49.887Z,0.22
2019-01-30T09:48:49.983Z,0.23
2019-01-30T09:49:49.902Z,0.22
2019-01-30T09:50:49.953Z,0.23
2019-01-30T09:51:49.883Z,0.23
2019-01-30T09:52:49.899Z,0.20
2019-01-30T09:53:49.952Z,0.22
2019-01-30T09:54:49.883Z,0.22
2019-01-30T09:55:49.997Z,0.26
2019-01-30T09:56:50.008Z,0.31
2019-01-30T09:57:49.938Z,0.34
2019-01-30T09:58:49.953Z,0.33
2019-01-30T09:59:49.891Z,0.31
2019-01-30T10:00:49.971Z,0.36
2019-01-30T10:01:49.885Z,0.36
2019-01-30T10:02:49.955Z,0.37
2019-01-30T10:03:49.970Z,0.36
2019-01-30T10:04:49.963Z,0.33
2019-01-30T10:05:49.901Z,0.36
2019-01-30T10:06:49.960Z,0.37
2019-01-30T10:07:49.891Z,0.37
2019-01-30T10:08:49.972Z,0.34
2019-01-30T10:09:49.912Z,0.36
2019-01-30T10:10:49.908Z,0.36
2019-01-30T10:11:49.873Z,0.34
2019-01-30T10:12:49.958Z,0.34
2019-01-30T10:13:49.848Z,0.36
2019-01-30T10:14:49.838Z,0.33
2019-01-30T10:15:49.922Z,0.34
2019-01-30T10:16:49.874Z,0.34
2019-01-30T10:17:49.976Z,0.37
2019-01-30T10:18:49.862Z,0.37
2019-01-30T10:19:49.971Z,0.37
2019-01-30T10:20:49.925Z,0.38
2019-01-30T10:21:49.903Z,0.36
2019-01-30T10:22:49.907Z,0.36
2019-01-30T10:23:49.919Z,0.37
2019-01-30T10:24:50.563Z,0.37
2019-01-30T10:25:49.937Z,0.37
2019-01-30T10:26:49.987Z,0.37
2019-01-30T10:27:49.961Z,0.38
2019-01-30T10:28:49.910Z,0.38
2019-01-30T10:29:49.973Z,0.40
2019-01-30T10:30:49.913Z,0.44
2019-01-30T10:31:49.909Z,0.47
2019-01-30T10:32:49.977Z,0.45
2019-01-30T10:33:49.920Z,0.47
2019-01-30T10:34:49.977Z,0.49
2019-01-30T10:35:49.916Z,0.54
2019-01-30T10:36:49.990Z,0.57
2019-01-30T10:37:49.970Z,0.54
2019-01-30T10:38:50.008Z,0.53
2019-01-30T10:39:49.864Z,0.51
2019-01-30T10:40:49.862Z,0.51
2019-01-30T10:41:49.979Z,0.53
2019-01-30T10:42:49.903Z,0.56
2019-01-30T10:43:49.868Z,0.57
2019-01-30T10:44:49.951Z,0.54
2019-01-30T10:45:49.908Z,0.53
2019-01-30T10:46:49.980Z,0.53
2019-01-30T10:47:49.993Z,0.53
2019-01-30T10:48:49.925Z,0.56
2019-01-30T10:49:50.004Z,0.57
2019-01-30T10:50:49.924Z,0.57
2019-01-30T10:51:49.994Z,0.59
2019-01-30T10:52:50.001Z,0.56
2019-01-30T10:53:49.934Z,0.57
2019-01-30T10:54:49.938Z,0.60
2019-01-30T10:55:49.996Z,0.59
2019-01-30T10:56:49.947Z,0.61
2019-01-30T10:57:49.923Z,0.63
2019-01-30T10:58:49.944Z,0.65
2019-01-30T10:59:49.900Z,0.68
2019-01-30T11:00:49.924Z,0.64
2019-01-30T11:01:49.951Z,0.67
2019-01-30T11:02:49.918Z,0.70
2019-01-30T11:03:57.100Z,0.72
2019-01-30T11:04:49.933Z,0.72
2019-01-30T11:05:49.905Z,0.71
2019-01-30T11:06:49.994Z,0.71
2019-01-30T11:07:49.940Z,0.71
2019-01-30T11:08:49.993Z,0.71
2019-01-30T11:09:49.932Z,0.72
2019-01-30T11:10:50.938Z,0.76
2019-01-30T11:11:49.946Z,0.76
2019-01-30T11:12:49.953Z,0.75
2019-01-30T11:13:50.005Z,0.76
2019-01-30T11:14:49.954Z,0.78
2019-01-30T11:15:50.018Z,0.81
2019-01-30T11:16:49.938Z,0.79
2019-01-30T11:17:50.020Z,0.81
2019-01-30T11:18:50.011Z,0.79
2019-01-30T11:19:49.942Z,0.76
2019-01-30T11:20:50.012Z,0.78
2019-01-30T11:21:50.018Z,0.76
2019-01-30T11:22:50.001Z,0.81
2019-01-30T11:23:49.949Z,0.81
2019-01-30T11:24:50.018Z,0.79
2019-01-30T11:25:49.946Z,0.79
2019-01-30T11:26:50.018Z,0.78
2019-01-30T11:27:50.026Z,0.75
2019-01-30T11:28:49.954Z,0.74
2019-01-30T11:29:49.956Z,0.75
2019-01-30T11:30:49.884Z,0.74
2019-01-30T11:31:49.947Z,0.72
2019-01-30T11:32:49.960Z,0.72
2019-01-30T11:33:49.960Z,0.70
2019-01-30T11:34:50.006Z,0.71
2019-01-30T11:35:49.961Z,0.71
2019-01-30T11:36:50.008Z,0.71
2019-01-30T11:37:49.996Z,0.71
2019-01-30T11:38:49.888Z,0.74
2019-01-30T11:39:49.914Z,0.75
2019-01-30T11:40:49.964Z,0.76
2019-01-30T11:41:50.039Z,0.76
2019-01-30T11:42:50.018Z,0.67
2019-01-30T11:43:49.989Z,0.61
2019-01-30T11:44:50.005Z,0.59
2019-01-30T11:45:50.021Z,0.57
2019-01-30T11:46:49.944Z,0.59
2019-01-30T11:47:49.934Z,0.60
2019-01-30T11:48:56.186Z,0.56
2019-01-30T11:49:50.025Z,0.56
2019-01-30T11:50:49.978Z,0.48
2019-01-30T11:51:50.026Z,0.47
2019-01-30T11:52:49.991Z,0.48
2019-01-30T11:53:50.031Z,0.49
2019-01-30T11:54:49.963Z,0.47
2019-01-30T11:55:49.936Z,0.45
2019-01-30T11:56:50.044Z,0.42
2019-01-30T11:57:50.000Z,0.44
2019-01-30T11:58:49.926Z,0.44
2019-01-30T11:59:49.955Z,0.44
2019-01-30T12:00:50.037Z,0.45
2019-01-30T12:01:49.998Z,0.44
2019-01-30T12:02:50.041Z,0.38
2019-01-30T12:03:49.990Z,0.38
2019-01-30T12:04:50.050Z,0.38
2019-01-30T12:05:49.972Z,0.34
2019-01-30T12:06:49.985Z,0.37
2019-01-30T12:07:50.058Z,0.36
2019-01-30T12:08:50.048Z,0.36
2019-01-30T12:09:50.057Z,0.34
2019-01-30T12:10:50.048Z,0.38
2019-01-30T12:11:50.055Z,0.42
2019-01-30T12:12:49.977Z,0.49
2019-01-30T12:13:50.022Z,0.56
2019-01-30T12:14:50.060Z,0.63
2019-01-30T12:15:50.054Z,0.63
2019-01-30T12:16:50.047Z,0.68
2019-01-30T12:17:50.070Z,0.72
2019-01-30T12:18:49.987Z,0.75
2019-01-30T12:19:50.082Z,0.78
2019-01-30T12:20:51.863Z,0.79
2019-01-30T12:21:50.030Z,0.71
2019-01-30T12:22:49.922Z,0.68
2019-01-30T12:23:50.040Z,0.67
2019-01-30T12:24:50.039Z,0.67
2019-01-30T12:25:49.917Z,0.64
2019-01-30T12:26:49.914Z,0.65
2019-01-30T12:27:50.866Z,0.63
2019-01-30T12:28:49.990Z,0.67
2019-01-30T12:29:49.942Z,0.67
2019-01-30T12:30:50.078Z,0.67
2019-01-30T12:31:49.979Z,0.65
2019-01-30T12:32:50.057Z,0.61
2019-01-30T12:33:50.026Z,0.60
2019-01-30T12:34:50.028Z,0.57
2019-01-30T12:35:50.064Z,0.53
2019-01-30T12:36:49.987Z,0.54
2019-01-30T12:37:50.061Z,0.54
2019-01-30T12:38:49.998Z,0.51
2019-01-30T12:39:49.987Z,0.49
2019-01-30T12:40:49.998Z,0.51
2019-01-30T12:41:50.002Z,0.51
2019-01-30T12:42:50.087Z,0.49
2019-01-30T12:43:50.001Z,0.54
2019-01-30T12:44:50.072Z,0.56
2019-01-30T12:45:50.075Z,0.57
2019-01-30T12:46:50.193Z,0.57
2019-01-30T12:47:50.022Z,0.60
2019-01-30T12:48:50.077Z,0.61
2019-01-30T12:49:50.012Z,0.64
2019-01-30T12:50:50.083Z,0.68
2019-01-30T12:51:50.076Z,0.70
2019-01-30T12:52:50.018Z,0.74
2019-01-30T12:53:50.083Z,0.79
2019-01-30T12:54:50.023Z,0.81
2019-01-30T12:55:50.080Z,0.83
2019-01-30T12:56:50.009Z,0.85
2019-01-30T12:57:50.086Z,0.86
2019-01-30T12:58:50.036Z,0.88
2019-01-30T12:59:50.078Z,0.86
2019-01-30T13:00:50.012Z,0.86
2019-01-30T13:01:50.015Z,0.86